sensor_id;sensor_type;location;lat;lon;timestamp;temperature;humidity
12268;DHT22;6196;48.398;11.736;2023-09-30T00:01:25;15.90;99.90
12268;DHT22;6196;48.398;11.736;2023-09-30T00:03:53;15.80;99.90
12268;DHT22;6196;48.398;11.736;2023-09-30T00:06:20;15.90;99.90
12268;DHT22;6196;48.398;11.736;2023-09-30T00:08:47;15.80;99.90
12268;DHT22;6196;48.398;11.736;2023-09-30T00:11:17;15.70;99.90
12268;DHT22;6196;48.398;11.736;2023-09-30T00:13:46;15.70;99.90
12268;DHT22;6196;48.398;11.736;2023-09-30T00:16:15;15.60;99.90
12268;DHT22;6196;48.398;11.736;2023-09-30T00:18:44;15.60;99.90
12268;DHT22;6196;48.398;11.736;2023-09-30T00:21:12;15.50;99.90
12268;DHT22;6196;48.398;11.736;2023-09-30T00:23:39;15.50;99.90
12268;DHT22;6196;48.398;11.736;2023-09-30T00:26:06;15.50;99.90
12268;DHT22;6196;48.398;11.736;2023-09-30T00:28:33;15.40;99.90
12268;DHT22;6196;48.398;11.736;2023-09-30T00:30:59;15.30;99.90
12268;DHT22;6196;48.398;11.736;2023-09-30T00:33:26;15.30;99.90
12268;DHT22;6196;48.398;11.736;2023-09-30T00:35:54;15.40;99.90
12268;DHT22;6196;48.398;11.736;2023-09-30T00:38:21;15.20;99.90
12268;DHT22;6196;48.398;11.736;2023-09-30T00:40:50;15.30;99.90
12268;DHT22;6196;48.398;11.736;2023-09-30T00:43:20;15.20;99.90
12268;DHT22;6196;48.398;11.736;2023-09-30T00:48:57;15.20;99.90
12268;DHT22;6196;48.398;11.736;2023-09-30T00:51:26;15.20;99.90
12268;DHT22;6196;48.398;11.736;2023-09-30T00:53:56;15.20;99.90
12268;DHT22;6196;48.398;11.736;2023-09-30T00:56:27;15.30;99.90
12268;DHT22;6196;48.398;11.736;2023-09-30T00:58:56;15.30;99.90
12268;DHT22;6196;48.398;11.736;2023-09-30T01:01:23;15.40;99.90
12268;DHT22;6196;48.398;11.736;2023-09-30T01:03:51;15.40;99.90
12268;DHT22;6196;48.398;11.736;2023-09-30T01:06:18;15.40;99.90
12268;DHT22;6196;48.398;11.736;2023-09-30T01:08:46;15.30;99.90
12268;DHT22;6196;48.398;11.736;2023-09-30T01:11:13;15.40;99.90
12268;DHT22;6196;48.398;11.736;2023-09-30T01:13:40;15.40;99.90
12268;DHT22;6196;48.398;11.736;2023-09-30T01:16:10;15.50;99.90
12268;DHT22;6196;48.398;11.736;2023-09-30T01:18:38;15.60;99.90
12268;DHT22;6196;48.398;11.736;2023-09-30T01:21:07;15.60;99.90
12268;DHT22;6196;48.398;11.736;2023-09-30T01:23:35;15.70;99.90
12268;DHT22;6196;48.398;11.736;2023-09-30T01:26:03;15.70;99.90
12268;DHT22;6196;48.398;11.736;2023-09-30T01:28:36;15.80;99.90
12268;DHT22;6196;48.398;11.736;2023-09-30T01:31:03;15.70;99.90
12268;DHT22;6196;48.398;11.736;2023-09-30T01:33:31;15.80;99.90
12268;DHT22;6196;48.398;11.736;2023-09-30T01:35:59;15.70;99.90
12268;DHT22;6196;48.398;11.736;2023-09-30T01:38:26;15.70;99.90
12268;DHT22;6196;48.398;11.736;2023-09-30T01:40:53;15.70;99.90
12268;DHT22;6196;48.398;11.736;2023-09-30T01:43:23;15.80;99.90
12268;DHT22;6196;48.398;11.736;2023-09-30T01:45:50;15.80;99.90
12268;DHT22;6196;48.398;11.736;2023-09-30T01:48:17;15.80;99.90
12268;DHT22;6196;48.398;11.736;2023-09-30T01:50:44;15.90;99.90
12268;DHT22;6196;48.398;11.736;2023-09-30T01:53:11;15.90;99.90
12268;DHT22;6196;48.398;11.736;2023-09-30T01:55:38;15.90;99.90
12268;DHT22;6196;48.398;11.736;2023-09-30T01:58:05;15.90;99.90
12268;DHT22;6196;48.398;11.736;2023-09-30T02:00:32;16.00;99.90
12268;DHT22;6196;48.398;11.736;2023-09-30T02:03:02;16.00;99.90
12268;DHT22;6196;48.398;11.736;2023-09-30T02:05:29;16.00;99.90
12268;DHT22;6196;48.398;11.736;2023-09-30T02:07:56;16.00;99.90
12268;DHT22;6196;48.398;11.736;2023-09-30T02:10:22;16.10;99.90
12268;DHT22;6196;48.398;11.736;2023-09-30T02:12:49;16.00;99.90
12268;DHT22;6196;48.398;11.736;2023-09-30T02:15:17;16.10;99.90
12268;DHT22;6196;48.398;11.736;2023-09-30T02:17:44;16.10;99.90
12268;DHT22;6196;48.398;11.736;2023-09-30T02:20:13;16.10;99.90
12268;DHT22;6196;48.398;11.736;2023-09-30T02:22:43;16.10;99.90
12268;DHT22;6196;48.398;11.736;2023-09-30T02:25:11;16.10;99.90
12268;DHT22;6196;48.398;11.736;2023-09-30T02:27:43;16.10;99.90
12268;DHT22;6196;48.398;11.736;2023-09-30T02:30:11;16.10;99.90
12268;DHT22;6196;48.398;11.736;2023-09-30T02:32:40;16.10;99.90
12268;DHT22;6196;48.398;11.736;2023-09-30T02:35:09;16.00;99.90
12268;DHT22;6196;48.398;11.736;2023-09-30T02:37:38;16.00;99.90
12268;DHT22;6196;48.398;11.736;2023-09-30T02:40:07;15.90;99.90
12268;DHT22;6196;48.398;11.736;2023-09-30T02:42:39;15.90;99.90
12268;DHT22;6196;48.398;11.736;2023-09-30T02:45:07;15.80;99.90
12268;DHT22;6196;48.398;11.736;2023-09-30T02:47:36;15.90;99.90
12268;DHT22;6196;48.398;11.736;2023-09-30T02:50:08;15.80;99.90
12268;DHT22;6196;48.398;11.736;2023-09-30T02:52:38;15.80;99.90
12268;DHT22;6196;48.398;11.736;2023-09-30T02:55:11;15.80;99.90
12268;DHT22;6196;48.398;11.736;2023-09-30T02:57:39;15.80;99.90
12268;DHT22;6196;48.398;11.736;2023-09-30T03:00:08;15.80;99.90
12268;DHT22;6196;48.398;11.736;2023-09-30T03:02:53;15.80;99.90
12268;DHT22;6196;48.398;11.736;2023-09-30T03:05:21;15.80;99.90
12268;DHT22;6196;48.398;11.736;2023-09-30T03:07:50;15.80;99.90
12268;DHT22;6196;48.398;11.736;2023-09-30T03:10:17;15.70;99.90
12268;DHT22;6196;48.398;11.736;2023-09-30T03:12:50;15.70;99.90
12268;DHT22;6196;48.398;11.736;2023-09-30T03:15:18;15.70;99.90
12268;DHT22;6196;48.398;11.736;2023-09-30T03:17:45;15.60;99.90
12268;DHT22;6196;48.398;11.736;2023-09-30T03:20:13;15.50;99.90
12268;DHT22;6196;48.398;11.736;2023-09-30T03:22:42;15.50;99.90
12268;DHT22;6196;48.398;11.736;2023-09-30T03:25:14;15.40;99.90
12268;DHT22;6196;48.398;11.736;2023-09-30T03:27:44;15.50;99.90
12268;DHT22;6196;48.398;11.736;2023-09-30T03:30:16;15.40;99.90
12268;DHT22;6196;48.398;11.736;2023-09-30T03:32:43;15.50;99.90
12268;DHT22;6196;48.398;11.736;2023-09-30T03:35:11;15.30;99.90
12268;DHT22;6196;48.398;11.736;2023-09-30T03:37:48;15.30;99.90
12268;DHT22;6196;48.398;11.736;2023-09-30T03:40:17;15.40;99.90
12268;DHT22;6196;48.398;11.736;2023-09-30T03:42:47;15.20;99.90
12268;DHT22;6196;48.398;11.736;2023-09-30T03:45:16;15.30;99.90
12268;DHT22;6196;48.398;11.736;2023-09-30T03:47:44;15.40;99.90
12268;DHT22;6196;48.398;11.736;2023-09-30T03:50:11;15.40;99.90
12268;DHT22;6196;48.398;11.736;2023-09-30T03:52:43;15.40;99.90
12268;DHT22;6196;48.398;11.736;2023-09-30T03:55:17;15.40;99.90
12268;DHT22;6196;48.398;11.736;2023-09-30T03:57:48;15.40;99.90
12268;DHT22;6196;48.398;11.736;2023-09-30T04:00:18;15.40;99.90
12268;DHT22;6196;48.398;11.736;2023-09-30T04:02:48;15.40;99.90
12268;DHT22;6196;48.398;11.736;2023-09-30T04:05:18;15.40;99.90
12268;DHT22;6196;48.398;11.736;2023-09-30T04:07:46;15.50;99.90
12268;DHT22;6196;48.398;11.736;2023-09-30T04:10:13;15.50;99.90
12268;DHT22;6196;48.398;11.736;2023-09-30T04:12:41;15.60;99.90
12268;DHT22;6196;48.398;11.736;2023-09-30T04:15:08;15.60;99.90
12268;DHT22;6196;48.398;11.736;2023-09-30T04:17:38;15.60;99.90
12268;DHT22;6196;48.398;11.736;2023-09-30T04:20:07;15.60;99.90
12268;DHT22;6196;48.398;11.736;2023-09-30T04:22:44;15.60;99.90
12268;DHT22;6196;48.398;11.736;2023-09-30T04:25:16;15.60;99.90
12268;DHT22;6196;48.398;11.736;2023-09-30T04:27:44;15.60;99.90
12268;DHT22;6196;48.398;11.736;2023-09-30T04:30:15;15.60;99.90
12268;DHT22;6196;48.398;11.736;2023-09-30T04:32:43;15.50;99.90
12268;DHT22;6196;48.398;11.736;2023-09-30T04:35:11;15.40;99.90
12268;DHT22;6196;48.398;11.736;2023-09-30T04:37:38;15.40;99.90
12268;DHT22;6196;48.398;11.736;2023-09-30T04:40:09;15.40;99.90
12268;DHT22;6196;48.398;11.736;2023-09-30T04:43:03;15.30;99.90
12268;DHT22;6196;48.398;11.736;2023-09-30T04:45:30;15.30;99.90
12268;DHT22;6196;48.398;11.736;2023-09-30T04:47:57;15.30;99.90
12268;DHT22;6196;48.398;11.736;2023-09-30T04:50:24;15.20;99.90
12268;DHT22;6196;48.398;11.736;2023-09-30T04:52:51;15.20;99.90
12268;DHT22;6196;48.398;11.736;2023-09-30T04:55:19;15.10;99.90
12268;DHT22;6196;48.398;11.736;2023-09-30T04:57:46;15.10;99.90
12268;DHT22;6196;48.398;11.736;2023-09-30T05:00:16;15.00;99.90
12268;DHT22;6196;48.398;11.736;2023-09-30T05:02:45;14.90;99.90
12268;DHT22;6196;48.398;11.736;2023-09-30T05:05:14;14.80;99.90
12268;DHT22;6196;48.398;11.736;2023-09-30T05:07:42;14.70;99.90
12268;DHT22;6196;48.398;11.736;2023-09-30T05:10:10;14.60;99.90
12268;DHT22;6196;48.398;11.736;2023-09-30T05:12:40;14.60;99.90
12268;DHT22;6196;48.398;11.736;2023-09-30T05:15:13;14.50;99.90
12268;DHT22;6196;48.398;11.736;2023-09-30T05:17:47;14.40;99.90
12268;DHT22;6196;48.398;11.736;2023-09-30T05:20:16;14.40;99.90
12268;DHT22;6196;48.398;11.736;2023-09-30T05:22:45;14.40;99.90
12268;DHT22;6196;48.398;11.736;2023-09-30T05:25:13;14.30;99.90
12268;DHT22;6196;48.398;11.736;2023-09-30T05:27:45;14.40;99.90
12268;DHT22;6196;48.398;11.736;2023-09-30T05:30:15;14.50;99.90
12268;DHT22;6196;48.398;11.736;2023-09-30T05:32:42;14.50;99.90
12268;DHT22;6196;48.398;11.736;2023-09-30T05:35:10;14.50;99.90
12268;DHT22;6196;48.398;11.736;2023-09-30T05:37:43;14.50;99.90
12268;DHT22;6196;48.398;11.736;2023-09-30T05:40:12;14.60;99.90
12268;DHT22;6196;48.398;11.736;2023-09-30T05:42:58;14.60;99.90
12268;DHT22;6196;48.398;11.736;2023-09-30T05:45:27;14.70;99.90
12268;DHT22;6196;48.398;11.736;2023-09-30T05:47:55;14.70;99.90
12268;DHT22;6196;48.398;11.736;2023-09-30T05:50:24;14.80;99.90
12268;DHT22;6196;48.398;11.736;2023-09-30T05:52:54;14.80;99.90
12268;DHT22;6196;48.398;11.736;2023-09-30T05:55:22;14.70;99.90
12268;DHT22;6196;48.398;11.736;2023-09-30T05:57:52;14.90;99.90
12268;DHT22;6196;48.398;11.736;2023-09-30T06:00:19;15.00;99.90
12268;DHT22;6196;48.398;11.736;2023-09-30T06:02:57;15.10;99.90
12268;DHT22;6196;48.398;11.736;2023-09-30T06:05:25;15.20;99.90
12268;DHT22;6196;48.398;11.736;2023-09-30T06:07:53;15.20;99.90
12268;DHT22;6196;48.398;11.736;2023-09-30T06:10:21;15.30;99.90
12268;DHT22;6196;48.398;11.736;2023-09-30T06:12:52;15.40;99.90
12268;DHT22;6196;48.398;11.736;2023-09-30T06:15:24;15.50;99.90
12268;DHT22;6196;48.398;11.736;2023-09-30T06:17:56;15.50;99.90
12268;DHT22;6196;48.398;11.736;2023-09-30T06:20:24;15.70;99.90
12268;DHT22;6196;48.398;11.736;2023-09-30T06:22:57;15.80;99.90
12268;DHT22;6196;48.398;11.736;2023-09-30T06:25:25;15.90;99.90
12268;DHT22;6196;48.398;11.736;2023-09-30T06:27:52;15.90;99.90
12268;DHT22;6196;48.398;11.736;2023-09-30T06:30:21;15.90;99.90
12268;DHT22;6196;48.398;11.736;2023-09-30T06:32:49;15.80;99.90
12268;DHT22;6196;48.398;11.736;2023-09-30T06:35:16;15.90;99.90
12268;DHT22;6196;48.398;11.736;2023-09-30T06:37:46;15.90;99.90
12268;DHT22;6196;48.398;11.736;2023-09-30T06:40:14;16.00;99.90
12268;DHT22;6196;48.398;11.736;2023-09-30T06:42:41;16.10;99.90
12268;DHT22;6196;48.398;11.736;2023-09-30T06:45:09;16.30;99.90
12268;DHT22;6196;48.398;11.736;2023-09-30T06:47:37;16.50;99.90
12268;DHT22;6196;48.398;11.736;2023-09-30T06:50:10;16.60;99.90
12268;DHT22;6196;48.398;11.736;2023-09-30T06:52:40;16.70;99.90
12268;DHT22;6196;48.398;11.736;2023-09-30T06:55:09;16.90;99.90
12268;DHT22;6196;48.398;11.736;2023-09-30T06:57:37;16.90;99.90
12268;DHT22;6196;48.398;11.736;2023-09-30T07:00:09;16.90;99.90
12268;DHT22;6196;48.398;11.736;2023-09-30T07:02:39;17.00;99.90
12268;DHT22;6196;48.398;11.736;2023-09-30T07:05:08;17.30;99.90
12268;DHT22;6196;48.398;11.736;2023-09-30T07:07:36;17.30;99.90
12268;DHT22;6196;48.398;11.736;2023-09-30T07:10:05;17.40;99.90
12268;DHT22;6196;48.398;11.736;2023-09-30T07:12:32;17.50;99.90
12268;DHT22;6196;48.398;11.736;2023-09-30T07:15:03;17.60;99.90
12268;DHT22;6196;48.398;11.736;2023-09-30T07:17:34;17.70;99.90
12268;DHT22;6196;48.398;11.736;2023-09-30T07:20:02;17.70;99.90
12268;DHT22;6196;48.398;11.736;2023-09-30T07:22:32;17.80;99.90
12268;DHT22;6196;48.398;11.736;2023-09-30T07:25:18;18.00;99.90
12268;DHT22;6196;48.398;11.736;2023-09-30T07:27:45;18.20;99.90
12268;DHT22;6196;48.398;11.736;2023-09-30T07:30:16;18.40;99.90
12268;DHT22;6196;48.398;11.736;2023-09-30T07:32:43;18.40;99.90
12268;DHT22;6196;48.398;11.736;2023-09-30T07:35:11;18.40;99.90
12268;DHT22;6196;48.398;11.736;2023-09-30T07:37:41;18.50;99.90
12268;DHT22;6196;48.398;11.736;2023-09-30T07:40:09;18.10;99.90
12268;DHT22;6196;48.398;11.736;2023-09-30T07:42:39;18.20;99.90
12268;DHT22;6196;48.398;11.736;2023-09-30T07:45:07;18.40;99.90
12268;DHT22;6196;48.398;11.736;2023-09-30T07:47:34;18.50;99.90
12268;DHT22;6196;48.398;11.736;2023-09-30T07:50:03;18.50;99.90
12268;DHT22;6196;48.398;11.736;2023-09-30T07:52:36;18.50;99.90
12268;DHT22;6196;48.398;11.736;2023-09-30T07:55:03;18.50;99.90
12268;DHT22;6196;48.398;11.736;2023-09-30T07:57:31;18.40;99.90
12268;DHT22;6196;48.398;11.736;2023-09-30T08:00:00;18.40;99.90
12268;DHT22;6196;48.398;11.736;2023-09-30T08:02:28;18.40;99.90
12268;DHT22;6196;48.398;11.736;2023-09-30T08:05:00;18.10;99.90
12268;DHT22;6196;48.398;11.736;2023-09-30T08:07:27;18.20;99.90
12268;DHT22;6196;48.398;11.736;2023-09-30T08:09:54;18.40;99.90
12268;DHT22;6196;48.398;11.736;2023-09-30T08:12:21;18.30;99.90
12268;DHT22;6196;48.398;11.736;2023-09-30T08:14:48;18.40;99.90
12268;DHT22;6196;48.398;11.736;2023-09-30T08:17:15;18.10;99.90
12268;DHT22;6196;48.398;11.736;2023-09-30T08:19:44;17.90;99.90
12268;DHT22;6196;48.398;11.736;2023-09-30T08:22:11;18.00;99.90
12268;DHT22;6196;48.398;11.736;2023-09-30T08:24:38;18.00;99.90
12268;DHT22;6196;48.398;11.736;2023-09-30T08:27:05;18.20;99.90
12268;DHT22;6196;48.398;11.736;2023-09-30T08:29:35;18.30;99.90
12268;DHT22;6196;48.398;11.736;2023-09-30T08:32:03;18.30;99.90
12268;DHT22;6196;48.398;11.736;2023-09-30T08:34:30;18.00;99.90
12268;DHT22;6196;48.398;11.736;2023-09-30T08:36:57;18.20;99.90
12268;DHT22;6196;48.398;11.736;2023-09-30T08:39:27;18.40;99.90
12268;DHT22;6196;48.398;11.736;2023-09-30T08:41:55;18.60;99.90
12268;DHT22;6196;48.398;11.736;2023-09-30T08:44:23;18.40;99.90
12268;DHT22;6196;48.398;11.736;2023-09-30T08:46:52;18.70;99.90
12268;DHT22;6196;48.398;11.736;2023-09-30T08:49:20;18.80;99.90
12268;DHT22;6196;48.398;11.736;2023-09-30T08:51:49;18.80;99.90
12268;DHT22;6196;48.398;11.736;2023-09-30T08:54:17;18.90;99.90
12268;DHT22;6196;48.398;11.736;2023-09-30T08:56:47;19.10;99.90
12268;DHT22;6196;48.398;11.736;2023-09-30T08:59:16;19.40;99.90
12268;DHT22;6196;48.398;11.736;2023-09-30T09:01:43;19.60;99.90
12268;DHT22;6196;48.398;11.736;2023-09-30T09:04:10;20.10;99.90
12268;DHT22;6196;48.398;11.736;2023-09-30T09:06:38;19.80;99.90
12268;DHT22;6196;48.398;11.736;2023-09-30T09:09:18;19.80;99.90
12268;DHT22;6196;48.398;11.736;2023-09-30T09:11:46;20.10;99.90
12268;DHT22;6196;48.398;11.736;2023-09-30T09:14:13;20.50;99.90
12268;DHT22;6196;48.398;11.736;2023-09-30T09:17:10;20.50;99.90
12268;DHT22;6196;48.398;11.736;2023-09-30T09:19:38;20.40;99.90
12268;DHT22;6196;48.398;11.736;2023-09-30T09:22:05;20.20;99.90
12268;DHT22;6196;48.398;11.736;2023-09-30T09:24:35;20.20;99.90
12268;DHT22;6196;48.398;11.736;2023-09-30T09:27:08;20.50;99.90
12268;DHT22;6196;48.398;11.736;2023-09-30T09:29:39;20.50;99.90
12268;DHT22;6196;48.398;11.736;2023-09-30T09:32:11;20.60;99.90
12268;DHT22;6196;48.398;11.736;2023-09-30T09:34:42;20.80;99.90
12268;DHT22;6196;48.398;11.736;2023-09-30T09:37:18;21.30;99.90
12268;DHT22;6196;48.398;11.736;2023-09-30T09:42:28;22.00;99.90
12268;DHT22;6196;48.398;11.736;2023-09-30T09:45:04;21.70;99.90
12268;DHT22;6196;48.398;11.736;2023-09-30T09:47:33;21.10;99.90
12268;DHT22;6196;48.398;11.736;2023-09-30T09:50:03;20.70;99.90
12268;DHT22;6196;48.398;11.736;2023-09-30T09:52:34;20.80;99.90
12268;DHT22;6196;48.398;11.736;2023-09-30T09:55:02;21.40;99.90
12268;DHT22;6196;48.398;11.736;2023-09-30T09:57:31;21.50;99.90
12268;DHT22;6196;48.398;11.736;2023-09-30T09:59:58;21.30;99.90
12268;DHT22;6196;48.398;11.736;2023-09-30T10:02:26;21.30;99.90
12268;DHT22;6196;48.398;11.736;2023-09-30T10:04:56;21.60;99.90
12268;DHT22;6196;48.398;11.736;2023-09-30T10:07:29;21.90;99.90
12268;DHT22;6196;48.398;11.736;2023-09-30T10:10:02;21.50;99.90
12268;DHT22;6196;48.398;11.736;2023-09-30T10:12:36;21.60;99.90
12268;DHT22;6196;48.398;11.736;2023-09-30T10:18:05;22.10;99.90
12268;DHT22;6196;48.398;11.736;2023-09-30T10:20:43;22.80;99.90
12268;DHT22;6196;48.398;11.736;2023-09-30T10:23:28;23.50;99.90
12268;DHT22;6196;48.398;11.736;2023-09-30T10:28:42;23.50;99.90
12268;DHT22;6196;48.398;11.736;2023-09-30T10:31:22;22.90;99.90
12268;DHT22;6196;48.398;11.736;2023-09-30T10:36:34;23.10;99.90
12268;DHT22;6196;48.398;11.736;2023-09-30T10:39:05;22.80;99.90
12268;DHT22;6196;48.398;11.736;2023-09-30T10:46:49;23.40;99.90
12268;DHT22;6196;48.398;11.736;2023-09-30T10:51:55;25.20;99.90
12268;DHT22;6196;48.398;11.736;2023-09-30T10:54:28;25.00;99.90
12268;DHT22;6196;48.398;11.736;2023-09-30T10:56:56;25.70;99.90
12268;DHT22;6196;48.398;11.736;2023-09-30T10:59:28;24.80;99.90
12268;DHT22;6196;48.398;11.736;2023-09-30T11:01:59;25.50;99.90
12268;DHT22;6196;48.398;11.736;2023-09-30T11:04:26;25.50;99.90
12268;DHT22;6196;48.398;11.736;2023-09-30T11:06:55;25.50;99.90
12268;DHT22;6196;48.398;11.736;2023-09-30T11:09:22;24.40;99.90
12268;DHT22;6196;48.398;11.736;2023-09-30T11:11:52;24.30;99.90
12268;DHT22;6196;48.398;11.736;2023-09-30T11:14:25;23.50;99.90
12268;DHT22;6196;48.398;11.736;2023-09-30T11:17:01;23.10;99.90
12268;DHT22;6196;48.398;11.736;2023-09-30T11:19:46;22.80;99.90
12268;DHT22;6196;48.398;11.736;2023-09-30T11:22:15;22.90;99.90
12268;DHT22;6196;48.398;11.736;2023-09-30T11:24:42;23.50;99.90
12268;DHT22;6196;48.398;11.736;2023-09-30T11:27:09;24.00;99.90
12268;DHT22;6196;48.398;11.736;2023-09-30T11:29:36;24.00;99.90
12268;DHT22;6196;48.398;11.736;2023-09-30T11:32:03;23.70;99.90
12268;DHT22;6196;48.398;11.736;2023-09-30T11:34:35;23.70;99.90
12268;DHT22;6196;48.398;11.736;2023-09-30T11:37:03;23.80;99.90
12268;DHT22;6196;48.398;11.736;2023-09-30T11:39:30;23.80;99.90
12268;DHT22;6196;48.398;11.736;2023-09-30T11:41:57;23.30;99.90
12268;DHT22;6196;48.398;11.736;2023-09-30T11:44:25;23.50;99.90
12268;DHT22;6196;48.398;11.736;2023-09-30T11:47:01;23.90;99.90
12268;DHT22;6196;48.398;11.736;2023-09-30T11:49:59;23.30;99.90
12268;DHT22;6196;48.398;11.736;2023-09-30T11:52:27;23.20;99.90
12268;DHT22;6196;48.398;11.736;2023-09-30T11:54:54;22.70;99.90
12268;DHT22;6196;48.398;11.736;2023-09-30T11:57:23;22.40;99.90
12268;DHT22;6196;48.398;11.736;2023-09-30T11:59:49;22.40;99.90
12268;DHT22;6196;48.398;11.736;2023-09-30T12:02:18;22.00;99.90
12268;DHT22;6196;48.398;11.736;2023-09-30T12:04:46;21.80;99.90
12268;DHT22;6196;48.398;11.736;2023-09-30T12:07:14;22.00;99.90
12268;DHT22;6196;48.398;11.736;2023-09-30T12:09:42;22.00;99.90
12268;DHT22;6196;48.398;11.736;2023-09-30T12:12:09;22.30;99.90
12268;DHT22;6196;48.398;11.736;2023-09-30T12:14:38;23.10;99.90
12268;DHT22;6196;48.398;11.736;2023-09-30T12:17:05;23.30;99.90
12268;DHT22;6196;48.398;11.736;2023-09-30T12:19:32;24.30;99.90
12268;DHT22;6196;48.398;11.736;2023-09-30T12:21:59;26.20;99.90
12268;DHT22;6196;48.398;11.736;2023-09-30T12:24:26;27.80;99.90
12268;DHT22;6196;48.398;11.736;2023-09-30T12:26:54;28.60;99.90
12268;DHT22;6196;48.398;11.736;2023-09-30T12:29:22;28.90;99.90
12268;DHT22;6196;48.398;11.736;2023-09-30T12:31:52;29.40;99.90
12268;DHT22;6196;48.398;11.736;2023-09-30T12:34:21;29.60;99.90
12268;DHT22;6196;48.398;11.736;2023-09-30T12:36:54;29.20;98.30
12268;DHT22;6196;48.398;11.736;2023-09-30T12:39:24;29.50;99.30
12268;DHT22;6196;48.398;11.736;2023-09-30T12:41:54;28.90;97.70
12268;DHT22;6196;48.398;11.736;2023-09-30T12:44:21;27.20;99.20
12268;DHT22;6196;48.398;11.736;2023-09-30T12:46:49;26.30;99.90
12268;DHT22;6196;48.398;11.736;2023-09-30T12:49:17;25.40;99.90
12268;DHT22;6196;48.398;11.736;2023-09-30T12:51:45;24.70;99.90
12268;DHT22;6196;48.398;11.736;2023-09-30T12:54:12;24.20;99.90
12268;DHT22;6196;48.398;11.736;2023-09-30T12:56:41;24.90;99.90
12268;DHT22;6196;48.398;11.736;2023-09-30T12:59:08;25.90;99.90
12268;DHT22;6196;48.398;11.736;2023-09-30T13:01:35;27.10;99.90
12268;DHT22;6196;48.398;11.736;2023-09-30T13:04:03;27.50;99.40
12268;DHT22;6196;48.398;11.736;2023-09-30T13:06:35;27.70;99.90
12268;DHT22;6196;48.398;11.736;2023-09-30T13:09:02;28.60;98.00
12268;DHT22;6196;48.398;11.736;2023-09-30T13:11:34;29.60;97.10
12268;DHT22;6196;48.398;11.736;2023-09-30T13:14:04;29.50;96.70
12268;DHT22;6196;48.398;11.736;2023-09-30T13:16:31;29.40;95.90
12268;DHT22;6196;48.398;11.736;2023-09-30T13:18:58;28.80;97.30
12268;DHT22;6196;48.398;11.736;2023-09-30T13:21:26;28.70;97.80
12268;DHT22;6196;48.398;11.736;2023-09-30T13:23:53;27.70;98.80
12268;DHT22;6196;48.398;11.736;2023-09-30T13:26:20;26.90;99.00
12268;DHT22;6196;48.398;11.736;2023-09-30T13:28:47;26.20;99.90
12268;DHT22;6196;48.398;11.736;2023-09-30T13:31:14;25.40;99.90
12268;DHT22;6196;48.398;11.736;2023-09-30T13:33:41;25.70;99.90
12268;DHT22;6196;48.398;11.736;2023-09-30T13:36:08;25.60;99.90
12268;DHT22;6196;48.398;11.736;2023-09-30T13:38:36;25.50;99.90
12268;DHT22;6196;48.398;11.736;2023-09-30T13:41:03;25.20;99.90
12268;DHT22;6196;48.398;11.736;2023-09-30T13:43:30;24.90;99.90
12268;DHT22;6196;48.398;11.736;2023-09-30T13:45:57;24.30;99.90
12268;DHT22;6196;48.398;11.736;2023-09-30T13:48:25;23.70;99.90
12268;DHT22;6196;48.398;11.736;2023-09-30T13:50:52;23.20;99.90
12268;DHT22;6196;48.398;11.736;2023-09-30T13:53:19;23.00;99.90
12268;DHT22;6196;48.398;11.736;2023-09-30T13:55:46;23.00;99.90
12268;DHT22;6196;48.398;11.736;2023-09-30T13:58:13;23.30;99.90
12268;DHT22;6196;48.398;11.736;2023-09-30T14:00:46;23.00;99.90
12268;DHT22;6196;48.398;11.736;2023-09-30T14:03:14;22.70;99.90
12268;DHT22;6196;48.398;11.736;2023-09-30T14:05:42;22.50;99.90
12268;DHT22;6196;48.398;11.736;2023-09-30T14:08:09;23.30;99.90
12268;DHT22;6196;48.398;11.736;2023-09-30T14:10:36;24.60;99.90
12268;DHT22;6196;48.398;11.736;2023-09-30T14:13:04;25.80;99.70
12268;DHT22;6196;48.398;11.736;2023-09-30T14:15:31;27.10;98.70
12268;DHT22;6196;48.398;11.736;2023-09-30T14:17:58;27.50;98.10
12268;DHT22;6196;48.398;11.736;2023-09-30T14:20:25;27.70;98.10
12268;DHT22;6196;48.398;11.736;2023-09-30T14:22:52;28.30;97.70
12268;DHT22;6196;48.398;11.736;2023-09-30T14:25:19;28.60;96.40
12268;DHT22;6196;48.398;11.736;2023-09-30T14:27:46;28.40;95.50
12268;DHT22;6196;48.398;11.736;2023-09-30T14:30:14;27.80;95.80
12268;DHT22;6196;48.398;11.736;2023-09-30T14:32:42;26.80;97.10
12268;DHT22;6196;48.398;11.736;2023-09-30T14:35:09;26.10;98.40
12268;DHT22;6196;48.398;11.736;2023-09-30T14:37:36;26.20;99.00
12268;DHT22;6196;48.398;11.736;2023-09-30T14:40:04;26.30;98.90
12268;DHT22;6196;48.398;11.736;2023-09-30T14:42:32;26.00;97.60
12268;DHT22;6196;48.398;11.736;2023-09-30T14:44:59;25.90;98.00
12268;DHT22;6196;48.398;11.736;2023-09-30T14:47:26;25.40;98.80
12268;DHT22;6196;48.398;11.736;2023-09-30T14:49:53;24.90;99.70
12268;DHT22;6196;48.398;11.736;2023-09-30T14:52:20;24.50;99.70
12268;DHT22;6196;48.398;11.736;2023-09-30T14:54:47;24.10;99.90
12268;DHT22;6196;48.398;11.736;2023-09-30T14:57:14;23.60;99.90
12268;DHT22;6196;48.398;11.736;2023-09-30T14:59:42;23.70;99.90
12268;DHT22;6196;48.398;11.736;2023-09-30T15:02:09;24.00;99.90
12268;DHT22;6196;48.398;11.736;2023-09-30T15:04:37;24.50;99.90
12268;DHT22;6196;48.398;11.736;2023-09-30T15:07:04;24.50;99.90
12268;DHT22;6196;48.398;11.736;2023-09-30T15:09:32;24.70;99.90
12268;DHT22;6196;48.398;11.736;2023-09-30T15:11:59;24.70;99.90
12268;DHT22;6196;48.398;11.736;2023-09-30T15:14:26;25.10;99.90
12268;DHT22;6196;48.398;11.736;2023-09-30T15:16:53;24.90;99.90
12268;DHT22;6196;48.398;11.736;2023-09-30T15:19:20;24.60;99.90
12268;DHT22;6196;48.398;11.736;2023-09-30T15:21:48;24.40;99.90
12268;DHT22;6196;48.398;11.736;2023-09-30T15:24:16;23.70;99.90
12268;DHT22;6196;48.398;11.736;2023-09-30T15:26:43;23.30;99.90
12268;DHT22;6196;48.398;11.736;2023-09-30T15:29:10;22.90;99.90
12268;DHT22;6196;48.398;11.736;2023-09-30T15:31:37;22.50;99.90
12268;DHT22;6196;48.398;11.736;2023-09-30T15:34:05;22.20;99.90
12268;DHT22;6196;48.398;11.736;2023-09-30T15:36:32;22.00;99.90
12268;DHT22;6196;48.398;11.736;2023-09-30T15:39:00;21.80;99.90
12268;DHT22;6196;48.398;11.736;2023-09-30T15:41:27;21.70;99.90
12268;DHT22;6196;48.398;11.736;2023-09-30T15:43:58;21.50;99.90
12268;DHT22;6196;48.398;11.736;2023-09-30T15:46:26;21.30;99.90
12268;DHT22;6196;48.398;11.736;2023-09-30T15:48:53;21.10;99.90
12268;DHT22;6196;48.398;11.736;2023-09-30T15:51:21;21.00;99.90
12268;DHT22;6196;48.398;11.736;2023-09-30T15:53:48;20.70;99.90
12268;DHT22;6196;48.398;11.736;2023-09-30T15:56:15;20.60;99.90
12268;DHT22;6196;48.398;11.736;2023-09-30T15:58:42;20.50;99.90
12268;DHT22;6196;48.398;11.736;2023-09-30T16:01:12;20.40;99.90
12268;DHT22;6196;48.398;11.736;2023-09-30T16:03:40;20.40;99.90